Time;durP1;ratioP1;P1;durP2;ratioP2;P2;SDS_P1;SDS_P2;PMS_P1;PMS_P2;Temp;Humidity;BMP_temperature;BMP_pressure;BME280_temperature;BME280_humidity;BME280_pressure;Samples;Min_cycle;Max_cycle;Signal;HPM_P1;HPM_P2
2021/10/05 00:01:47;;;;;;;11.20;10.70;;;10.80;99.90;;;;;;5013675;28;20484;-61
2021/10/05 00:04:14;;;;;;;11.87;11.00;;;10.80;99.90;;;;;;5013873;28;20484;-60
2021/10/05 00:06:42;;;;;;;11.53;10.93;;;10.70;99.90;;;;;;5027171;28;20819;-63
2021/10/05 00:09:08;;;;;;;11.00;10.50;;;10.70;99.90;;;;;;5033267;28;20448;-61
2021/10/05 00:11:36;;;;;;;11.47;10.97;;;10.70;99.90;;;;;;5031754;28;20815;-62
2021/10/05 00:14:02;;;;;;;11.17;10.47;;;10.70;99.90;;;;;;5033042;28;20446;-62
2021/10/05 00:16:29;;;;;;;10.33;9.87;;;10.70;99.90;;;;;;5033486;28;20474;-62
2021/10/05 00:18:56;;;;;;;10.23;9.83;;;10.60;99.90;;;;;;5032969;28;20452;-62
2021/10/05 00:21:22;;;;;;;10.90;10.40;;;10.60;99.90;;;;;;5033319;28;20476;-62
2021/10/05 00:23:50;;;;;;;10.23;9.83;;;10.60;99.90;;;;;;5014445;28;20477;-62
2021/10/05 00:26:17;;;;;;;10.83;10.13;;;10.70;99.90;;;;;;5013290;28;20454;-62
2021/10/05 00:28:44;;;;;;;10.40;10.00;;;10.70;99.90;;;;;;5013143;28;20453;-62
2021/10/05 00:31:11;;;;;;;10.23;9.63;;;10.70;99.90;;;;;;5013168;28;20437;-62
2021/10/05 00:33:38;;;;;;;10.43;9.80;;;10.70;99.90;;;;;;5013177;28;21050;-62
2021/10/05 00:36:05;;;;;;;11.00;10.10;;;10.70;99.90;;;;;;5031159;28;20456;-62
2021/10/05 00:38:32;;;;;;;9.83;9.40;;;10.60;99.90;;;;;;5032805;28;20783;-62
2021/10/05 00:41:00;;;;;;;10.33;9.83;;;10.60;99.90;;;;;;5032793;28;20515;-62
2021/10/05 00:43:27;;;;;;;10.30;9.70;;;10.70;99.90;;;;;;5032606;28;20491;-62
2021/10/05 00:45:53;;;;;;;10.63;10.13;;;10.70;99.90;;;;;;5029467;28;21219;-61
2021/10/05 00:48:20;;;;;;;10.70;10.20;;;10.70;99.90;;;;;;4993169;28;20953;-62
2021/10/05 00:50:47;;;;;;;9.30;8.90;;;10.60;99.90;;;;;;5008642;28;20450;-62
2021/10/05 00:53:15;;;;;;;10.73;10.13;;;10.70;99.90;;;;;;5012647;28;20478;-62
2021/10/05 00:55:42;;;;;;;9.97;9.57;;;10.60;99.90;;;;;;5012761;28;20449;-62
2021/10/05 00:58:10;;;;;;;9.60;9.17;;;10.70;99.90;;;;;;5015939;28;20448;-62
2021/10/05 01:00:38;;;;;;;9.87;9.37;;;10.70;99.90;;;;;;5031630;28;20496;-62
2021/10/05 01:03:04;;;;;;;9.50;9.10;;;10.70;99.90;;;;;;5032233;28;20872;-62
2021/10/05 01:05:31;;;;;;;9.87;9.47;;;10.70;99.90;;;;;;5032447;28;20452;-60
2021/10/05 01:07:58;;;;;;;10.00;9.50;;;10.70;99.90;;;;;;5032142;28;20452;-62
2021/10/05 01:10:26;;;;;;;8.60;8.10;;;10.70;99.90;;;;;;5025668;28;20449;-62
2021/10/05 01:12:53;;;;;;;9.13;8.73;;;10.70;99.90;;;;;;5012522;28;20972;-61
2021/10/05 01:15:24;;;;;;;9.83;9.33;;;10.70;99.90;;;;;;5012444;28;20456;-62
2021/10/05 01:17:51;;;;;;;9.80;9.30;;;10.70;99.90;;;;;;5012282;28;21006;-62
2021/10/05 01:20:18;;;;;;;8.60;8.30;;;10.70;99.90;;;;;;5012202;28;20855;-62
2021/10/05 01:22:46;;;;;;;9.30;8.80;;;10.70;99.90;;;;;;5019033;28;21009;-62
2021/10/05 01:25:15;;;;;;;9.10;8.70;;;10.60;99.90;;;;;;5032104;28;20953;-61
2021/10/05 01:27:45;;;;;;;8.70;8.40;;;10.60;99.90;;;;;;5031686;28;20456;-63
2021/10/05 01:30:12;;;;;;;9.07;8.67;;;10.60;99.90;;;;;;5031917;28;20452;-61
2021/10/05 01:32:38;;;;;;;9.10;8.60;;;10.60;99.90;;;;;;5032115;28;20473;-62
2021/10/05 01:35:06;;;;;;;10.77;9.77;;;10.60;99.90;;;;;;5030275;28;20452;-62
2021/10/05 01:37:33;;;;;;;8.90;8.50;;;10.60;99.90;;;;;;5031982;28;20445;-62
2021/10/05 01:40:01;;;;;;;8.63;8.30;;;10.60;99.90;;;;;;5031773;28;20448;-62
2021/10/05 01:42:28;;;;;;;8.90;8.33;;;10.60;99.90;;;;;;5028593;28;20477;-62
2021/10/05 01:44:55;;;;;;;9.10;8.70;;;10.70;99.90;;;;;;5012076;28;20445;-62
2021/10/05 01:47:22;;;;;;;8.47;8.17;;;10.60;99.90;;;;;;5012017;28;20450;-61
2021/10/05 01:49:49;;;;;;;8.50;8.20;;;10.70;99.90;;;;;;5011856;28;20477;-62
2021/10/05 01:52:16;;;;;;;9.10;8.50;;;10.70;99.90;;;;;;5012626;28;20481;-61
2021/10/05 01:54:42;;;;;;;9.20;8.70;;;10.70;99.90;;;;;;5031440;28;20445;-62
2021/10/05 01:57:11;;;;;;;9.00;8.43;;;10.70;99.90;;;;;;5031684;28;20444;-62
2021/10/05 01:59:37;;;;;;;9.43;8.93;;;10.60;99.90;;;;;;5031441;28;20527;-62
2021/10/05 02:02:04;;;;;;;9.37;8.80;;;10.70;99.90;;;;;;5031440;28;20489;-62
2021/10/05 02:04:31;;;;;;;9.73;9.23;;;10.70;99.90;;;;;;5027192;28;20948;-62
2021/10/05 02:06:58;;;;;;;8.40;8.10;;;10.70;99.90;;;;;;5011983;28;20454;-60
2021/10/05 02:09:24;;;;;;;9.00;8.60;;;10.70;99.90;;;;;;5011763;28;20850;-62
2021/10/05 02:11:51;;;;;;;9.13;8.40;;;10.70;99.90;;;;;;5012700;28;20468;-62
2021/10/05 02:14:19;;;;;;;8.70;8.17;;;10.70;99.90;;;;;;5015862;28;20452;-62
2021/10/05 02:16:46;;;;;;;9.27;8.57;;;10.70;99.90;;;;;;5020541;28;20456;-62
2021/10/05 02:19:13;;;;;;;9.40;8.90;;;10.70;99.90;;;;;;5035286;28;20483;-63
2021/10/05 02:21:39;;;;;;;9.53;8.70;;;10.70;99.90;;;;;;5035461;28;20492;-61
2021/10/05 02:26:51;;;;;;;9.10;8.60;;;10.70;99.90;;;;;;5035472;28;20821;-62
2021/10/05 02:29:21;;;;;;;8.97;8.43;;;10.70;99.90;;;;;;5027442;28;20450;-61
2021/10/05 02:31:49;;;;;;;8.33;7.83;;;10.80;99.90;;;;;;5015357;28;20452;-62
2021/10/05 02:34:16;;;;;;;9.30;8.80;;;10.80;99.90;;;;;;5015389;28;20445;-62
2021/10/05 02:36:43;;;;;;;9.07;8.53;;;10.80;99.90;;;;;;5015365;28;20457;-59
2021/10/05 02:39:11;;;;;;;9.97;9.47;;;10.90;99.90;;;;;;5034837;28;20453;-60
2021/10/05 02:41:37;;;;;;;9.00;8.40;;;10.90;99.90;;;;;;5034921;28;20487;-59
2021/10/05 02:44:05;;;;;;;8.67;8.30;;;10.90;99.90;;;;;;5034994;28;20445;-58
2021/10/05 02:46:33;;;;;;;9.30;9.00;;;10.90;99.90;;;;;;5034947;28;20449;-60
2021/10/05 02:49:00;;;;;;;9.20;8.90;;;10.90;99.90;;;;;;5016354;28;20458;-59
2021/10/05 02:51:27;;;;;;;9.10;8.70;;;11.00;99.90;;;;;;5015135;28;20469;-62
2021/10/05 02:53:53;;;;;;;10.77;10.20;;;11.00;99.90;;;;;;5014916;28;20484;-62
2021/10/05 02:56:20;;;;;;;8.83;8.53;;;11.00;99.90;;;;;;5014984;28;20659;-61
2021/10/05 02:58:47;;;;;;;8.83;8.50;;;11.00;99.90;;;;;;5014801;28;20450;-61
2021/10/05 03:01:13;;;;;;;8.30;8.00;;;11.00;99.90;;;;;;5032188;28;20484;-60
2021/10/05 03:03:42;;;;;;;8.60;8.30;;;11.00;99.90;;;;;;5034540;28;20464;-61
2021/10/05 03:06:08;;;;;;;9.37;8.93;;;11.10;99.90;;;;;;5034770;28;20441;-62
2021/10/05 03:08:36;;;;;;;9.70;9.40;;;11.10;99.90;;;;;;5034406;28;20500;-61
2021/10/05 03:11:03;;;;;;;9.50;9.13;;;11.00;99.90;;;;;;5034279;28;20445;-61
2021/10/05 03:13:32;;;;;;;8.80;8.43;;;11.00;99.90;;;;;;5014556;28;20469;-62
2021/10/05 03:15:59;;;;;;;8.80;8.50;;;11.00;99.90;;;;;;5014876;28;20446;-62
2021/10/05 03:18:26;;;;;;;9.00;8.50;;;11.10;99.90;;;;;;5014402;28;20935;-62
2021/10/05 03:20:54;;;;;;;10.90;10.20;;;11.00;99.90;;;;;;5014492;28;20485;-61
2021/10/05 03:23:21;;;;;;;8.20;7.90;;;11.00;99.90;;;;;;5016172;28;20473;-61
2021/10/05 03:25:47;;;;;;;9.00;8.60;;;11.00;99.90;;;;;;5034136;28;20444;-62
2021/10/05 03:28:14;;;;;;;7.90;7.70;;;11.00;99.90;;;;;;5033946;28;20449;-61
2021/10/05 03:30:41;;;;;;;9.37;8.93;;;11.00;99.90;;;;;;5016472;28;20947;-60
2021/10/05 03:33:08;;;;;;;11.07;10.67;;;11.00;99.90;;;;;;5014547;28;20470;-61
2021/10/05 03:35:35;;;;;;;10.30;9.80;;;10.90;99.90;;;;;;5014242;28;20454;-62
2021/10/05 03:38:03;;;;;;;9.30;9.00;;;10.90;99.90;;;;;;5014155;28;20450;-62
2021/10/05 03:40:30;;;;;;;10.23;9.80;;;10.90;99.90;;;;;;5028613;28;20452;-60
2021/10/05 03:42:57;;;;;;;10.00;9.60;;;11.00;99.90;;;;;;5033873;28;20489;-62
2021/10/05 03:45:24;;;;;;;10.03;9.57;;;10.90;99.90;;;;;;5034095;28;21008;-62
2021/10/05 03:47:51;;;;;;;9.87;9.17;;;10.90;99.90;;;;;;5027245;28;20454;-62
2021/10/05 03:50:18;;;;;;;9.63;9.17;;;10.90;99.90;;;;;;5013953;28;20445;-60
2021/10/05 03:52:45;;;;;;;9.60;9.20;;;10.90;99.90;;;;;;5014108;28;20979;-64
2021/10/05 03:55:13;;;;;;;9.23;8.90;;;10.90;99.90;;;;;;5013928;28;20448;-63
2021/10/05 03:57:40;;;;;;;9.97;9.57;;;10.90;99.90;;;;;;5018223;28;20824;-63
2021/10/05 04:00:08;;;;;;;10.10;9.80;;;10.90;99.90;;;;;;5033580;28;20441;-63
2021/10/05 04:02:34;;;;;;;10.43;9.93;;;10.90;99.90;;;;;;5033415;28;20481;-63
2021/10/05 04:05:01;;;;;;;10.23;9.87;;;10.90;99.90;;;;;;5033438;28;20453;-63
2021/10/05 04:07:28;;;;;;;10.43;9.93;;;10.80;99.90;;;;;;5016560;28;20453;-63
2021/10/05 04:09:54;;;;;;;9.93;9.53;;;10.80;99.90;;;;;;5013347;28;20940;-63
2021/10/05 04:12:22;;;;;;;9.97;9.53;;;10.80;99.90;;;;;;5013445;28;20462;-63
2021/10/05 04:14:50;;;;;;;9.53;9.20;;;10.90;99.90;;;;;;5013695;28;20446;-63
2021/10/05 04:17:17;;;;;;;9.63;9.33;;;10.90;99.90;;;;;;5028066;28;20450;-62
2021/10/05 04:19:43;;;;;;;9.67;9.27;;;10.80;99.90;;;;;;5033182;28;20788;-63
2021/10/05 04:22:10;;;;;;;10.00;9.60;;;10.90;99.90;;;;;;5033092;28;20488;-64
2021/10/05 04:24:37;;;;;;;10.10;9.60;;;10.90;99.90;;;;;;5033172;28;20953;-63
2021/10/05 04:27:09;;;;;;;9.60;9.17;;;10.90;99.90;;;;;;5030994;28;20854;-63
2021/10/05 04:29:38;;;;;;;9.63;9.23;;;10.90;99.90;;;;;;5033094;28;20459;-63
2021/10/05 04:32:06;;;;;;;10.07;9.63;;;10.90;99.90;;;;;;5032908;28;20464;-61
2021/10/05 04:34:32;;;;;;;9.90;9.50;;;10.90;99.90;;;;;;5032885;28;20452;-63
2021/10/05 04:36:59;;;;;;;9.87;9.47;;;10.90;99.90;;;;;;5020787;28;20486;-63
2021/10/05 04:39:26;;;;;;;9.80;9.40;;;10.90;99.90;;;;;;5012882;28;20452;-64
2021/10/05 04:41:52;;;;;;;9.77;9.27;;;10.90;99.90;;;;;;5012882;28;20535;-62
2021/10/05 04:44:19;;;;;;;9.97;9.60;;;10.90;99.90;;;;;;5014507;28;20441;-63
2021/10/05 04:46:47;;;;;;;9.40;9.10;;;10.90;99.90;;;;;;5032131;28;20453;-63
2021/10/05 04:49:14;;;;;;;11.17;10.53;;;10.90;99.90;;;;;;5030826;28;20460;-63
2021/10/05 04:51:41;;;;;;;10.10;9.70;;;10.90;99.90;;;;;;5031314;28;20448;-63
2021/10/05 04:54:07;;;;;;;10.57;10.07;;;10.90;99.90;;;;;;5031035;28;20938;-62
2021/10/05 04:56:34;;;;;;;11.30;10.63;;;10.80;99.90;;;;;;5011770;28;20808;-62
2021/10/05 04:59:01;;;;;;;10.70;10.20;;;10.80;99.90;;;;;;5011283;28;20453;-63
2021/10/05 05:01:27;;;;;;;10.53;10.13;;;10.80;99.90;;;;;;5011389;28;20481;-61
2021/10/05 05:03:55;;;;;;;10.70;10.10;;;10.80;99.90;;;;;;5011369;28;20841;-63
2021/10/05 05:06:22;;;;;;;10.70;9.90;;;10.70;99.90;;;;;;5028479;28;20780;-63
2021/10/05 05:08:49;;;;;;;9.70;9.30;;;10.80;99.90;;;;;;5032011;28;20445;-62
2021/10/05 05:11:15;;;;;;;9.27;8.77;;;10.70;99.90;;;;;;5032070;28;20445;-61
2021/10/05 05:13:42;;;;;;;9.80;8.93;;;10.70;99.90;;;;;;5031794;28;20465;-63
2021/10/05 05:16:09;;;;;;;9.53;9.00;;;10.70;99.90;;;;;;5016261;28;20450;-63
2021/10/05 05:18:36;;;;;;;9.87;9.27;;;10.70;99.90;;;;;;4992351;28;20446;-63
2021/10/05 05:21:04;;;;;;;10.60;9.70;;;10.70;99.90;;;;;;4992478;28;20454;-63
2021/10/05 05:23:30;;;;;;;9.40;8.90;;;10.80;99.90;;;;;;4992378;28;20854;-62
2021/10/05 05:25:57;;;;;;;8.80;8.30;;;10.80;99.90;;;;;;5019376;28;20445;-62
2021/10/05 05:28:24;;;;;;;10.17;9.50;;;10.80;99.90;;;;;;5031670;28;20448;-61
2021/10/05 05:30:51;;;;;;;10.60;10.00;;;10.80;99.90;;;;;;5031875;28;20499;-62
2021/10/05 05:33:17;;;;;;;9.40;8.90;;;10.80;99.90;;;;;;5031617;28;20825;-62
2021/10/05 05:35:45;;;;;;;10.20;9.47;;;10.80;99.90;;;;;;5019984;28;20442;-63
2021/10/05 05:38:13;;;;;;;8.57;8.17;;;10.80;99.90;;;;;;5011420;28;20524;-63
2021/10/05 05:40:40;;;;;;;9.00;8.30;;;10.80;99.90;;;;;;5011667;28;20901;-63
2021/10/05 05:43:07;;;;;;;8.77;8.27;;;10.80;99.90;;;;;;5011644;28;20508;-63
2021/10/05 05:45:35;;;;;;;9.20;8.70;;;10.90;99.90;;;;;;5021493;28;20445;-63
2021/10/05 05:48:02;;;;;;;9.47;8.97;;;10.90;99.90;;;;;;5031029;28;20943;-63
2021/10/05 05:50:29;;;;;;;8.93;8.33;;;10.90;99.90;;;;;;5031418;28;20449;-63
2021/10/05 05:52:56;;;;;;;9.57;8.97;;;10.90;99.90;;;;;;5028954;28;20508;-63
2021/10/05 05:55:25;;;;;;;9.10;8.70;;;10.90;99.90;;;;;;5011659;28;20452;-62
2021/10/05 05:57:51;;;;;;;9.60;9.07;;;11.00;99.90;;;;;;5011684;28;20453;-63
2021/10/05 06:00:20;;;;;;;9.83;8.97;;;11.00;99.90;;;;;;5011562;28;20457;-62
2021/10/05 06:02:47;;;;;;;9.33;8.90;;;11.10;99.90;;;;;;5011938;28;20543;-63
2021/10/05 06:05:14;;;;;;;9.73;9.13;;;11.10;99.90;;;;;;5031870;28;20441;-63
2021/10/05 06:07:41;;;;;;;10.63;10.03;;;11.10;99.90;;;;;;5031478;28;20452;-63
2021/10/05 06:10:09;;;;;;;12.17;11.13;;;11.20;99.90;;;;;;5031225;28;20449;-63
2021/10/05 06:12:40;;;;;;;10.57;9.87;;;11.20;99.90;;;;;;5018387;28;20488;-63
2021/10/05 06:15:10;;;;;;;10.87;10.27;;;11.30;99.90;;;;;;5011540;28;20509;-62
2021/10/05 06:17:39;;;;;;;11.20;10.40;;;11.30;99.90;;;;;;5011645;28;20453;-63
2021/10/05 06:20:08;;;;;;;10.90;10.20;;;11.40;99.90;;;;;;5011287;28;20481;-61
2021/10/05 06:22:35;;;;;;;10.33;9.77;;;11.40;99.90;;;;;;5023112;28;20516;-63
2021/10/05 06:25:01;;;;;;;11.50;10.70;;;11.50;99.90;;;;;;5031226;28;20452;-62
2021/10/05 06:27:28;;;;;;;10.90;10.40;;;11.50;99.90;;;;;;5031062;28;20441;-63
2021/10/05 06:29:58;;;;;;;12.53;11.73;;;11.60;99.90;;;;;;5031035;28;20953;-63
2021/10/05 06:32:24;;;;;;;12.47;11.73;;;11.60;99.90;;;;;;5020220;28;20477;-63
2021/10/05 06:34:51;;;;;;;13.40;12.60;;;11.70;99.90;;;;;;5011458;28;20453;-61
2021/10/05 06:37:18;;;;;;;12.53;11.77;;;11.80;99.90;;;;;;5011379;28;20446;-61
2021/10/05 06:39:45;;;;;;;12.47;11.80;;;11.90;99.90;;;;;;5010981;28;20434;-63
2021/10/05 06:42:12;;;;;;;12.90;12.30;;;11.90;99.90;;;;;;5019513;28;20496;-63
2021/10/05 06:44:39;;;;;;;13.87;13.17;;;12.00;99.90;;;;;;5031037;28;20460;-62
2021/10/05 06:47:07;;;;;;;12.40;11.70;;;12.00;99.90;;;;;;5031235;28;20755;-63
2021/10/05 06:49:34;;;;;;;12.70;12.10;;;12.00;99.90;;;;;;5030768;28;20464;-63
2021/10/05 06:52:01;;;;;;;12.80;12.10;;;12.10;99.90;;;;;;5023661;28;20478;-63
2021/10/05 06:54:28;;;;;;;14.03;13.27;;;12.10;99.90;;;;;;5011135;28;20453;-63
2021/10/05 06:56:55;;;;;;;15.03;14.17;;;12.20;99.90;;;;;;5011042;28;20454;-63
2021/10/05 06:59:22;;;;;;;13.40;12.50;;;12.30;99.90;;;;;;5012589;28;20970;-61
2021/10/05 07:01:49;;;;;;;15.03;14.13;;;12.30;99.90;;;;;;5033136;28;20962;-63
2021/10/05 07:04:17;;;;;;;13.33;12.70;;;12.40;99.90;;;;;;5034383;28;20464;-63
2021/10/05 07:06:45;;;;;;;14.20;13.50;;;12.40;99.90;;;;;;5034363;28;20448;-63
2021/10/05 07:09:12;;;;;;;13.87;13.20;;;12.50;99.90;;;;;;5034131;28;20544;-63
2021/10/05 07:11:39;;;;;;;13.53;12.93;;;12.60;99.90;;;;;;5017001;28;20823;-63
2021/10/05 07:14:06;;;;;;;14.90;14.10;;;12.60;99.90;;;;;;5014533;28;20855;-63
2021/10/05 07:16:33;;;;;;;14.90;14.10;;;12.70;99.90;;;;;;5014491;28;20457;-63
2021/10/05 07:18:59;;;;;;;13.80;13.23;;;12.80;99.90;;;;;;5014158;28;20450;-62
2021/10/05 07:21:27;;;;;;;14.57;13.97;;;12.90;99.90;;;;;;5029261;28;20807;-63
2021/10/05 07:23:54;;;;;;;15.20;14.50;;;12.90;99.90;;;;;;5033877;28;20492;-63
2021/10/05 07:26:21;;;;;;;14.47;13.57;;;13.10;99.90;;;;;;5034043;28;20456;-63
2021/10/05 07:28:47;;;;;;;15.00;14.30;;;13.20;99.90;;;;;;5033824;28;20449;-62
2021/10/05 07:31:14;;;;;;;15.60;14.80;;;13.40;99.90;;;;;;5020532;28;20453;-63
2021/10/05 07:33:41;;;;;;;15.63;14.93;;;13.40;99.90;;;;;;5014003;28;20466;-63
2021/10/05 07:36:08;;;;;;;16.20;15.50;;;13.60;99.90;;;;;;5014047;28;20450;-62
2021/10/05 07:38:37;;;;;;;16.00;15.20;;;13.60;99.90;;;;;;5013770;28;20843;-63
2021/10/05 07:41:04;;;;;;;17.10;16.30;;;13.70;99.90;;;;;;5014050;28;20488;-61
2021/10/05 07:43:31;;;;;;;16.23;15.43;;;13.80;99.90;;;;;;5027642;28;20481;-63
2021/10/05 07:46:00;;;;;;;16.37;15.57;;;13.70;99.90;;;;;;5033317;28;20460;-60
2021/10/05 07:48:26;;;;;;;16.00;15.30;;;13.70;99.90;;;;;;5033390;28;20866;-56
2021/10/05 07:50:54;;;;;;;15.70;14.90;;;13.60;99.90;;;;;;5033532;28;20449;-57
2021/10/05 07:53:20;;;;;;;16.40;15.67;;;13.70;99.90;;;;;;5033296;28;20473;-60
2021/10/05 07:55:49;;;;;;;16.17;15.37;;;13.80;99.90;;;;;;5015687;28;20800;-58
2021/10/05 07:58:15;;;;;;;15.37;14.77;;;13.80;99.90;;;;;;5013459;28;20449;-54
2021/10/05 08:00:42;;;;;;;16.17;15.43;;;13.90;99.90;;;;;;5013574;28;20453;-58
2021/10/05 08:03:09;;;;;;;15.53;14.73;;;13.90;99.90;;;;;;5022711;28;20481;-59
2021/10/05 08:05:35;;;;;;;15.80;15.20;;;13.90;99.90;;;;;;5033418;28;20448;-57
2021/10/05 08:08:05;;;;;;;16.03;15.33;;;13.90;99.90;;;;;;5032959;28;20464;-59
2021/10/05 08:10:32;;;;;;;16.60;15.77;;;13.90;99.90;;;;;;5032767;28;20453;-58
2021/10/05 08:13:00;;;;;;;15.83;15.13;;;13.90;99.90;;;;;;5031468;28;20512;-58
2021/10/05 08:15:27;;;;;;;15.47;14.77;;;14.10;99.90;;;;;;5033270;28;20777;-59
2021/10/05 08:17:55;;;;;;;16.10;15.40;;;14.20;99.90;;;;;;5032958;28;20487;-58
2021/10/05 08:20:21;;;;;;;15.70;15.10;;;14.40;99.90;;;;;;4993661;28;20509;-57
2021/10/05 08:22:48;;;;;;;15.47;14.70;;;14.50;99.90;;;;;;4993514;28;20496;-55
2021/10/05 08:25:16;;;;;;;16.50;15.80;;;14.60;99.90;;;;;;5009785;28;20472;-57
2021/10/05 08:27:44;;;;;;;15.63;14.83;;;14.70;99.90;;;;;;5032710;28;20445;-60
2021/10/05 08:30:13;;;;;;;15.33;14.63;;;14.90;99.90;;;;;;5032927;28;20453;-57
2021/10/05 08:32:41;;;;;;;16.27;15.57;;;15.10;99.90;;;;;;5032565;28;20472;-55
2021/10/05 08:35:08;;;;;;;16.27;15.57;;;15.20;99.90;;;;;;5032756;28;20453;-57
2021/10/05 08:37:35;;;;;;;15.83;15.23;;;15.30;99.90;;;;;;5023190;28;20450;-55
2021/10/05 08:40:03;;;;;;;16.50;15.70;;;15.40;99.90;;;;;;5012538;28;20442;-56
2021/10/05 08:42:30;;;;;;;16.20;15.50;;;15.40;99.90;;;;;;5012653;28;20466;-59
2021/10/05 08:44:58;;;;;;;17.17;16.43;;;15.50;99.90;;;;;;5012904;28;20446;-58
2021/10/05 08:47:27;;;;;;;16.50;15.83;;;15.60;99.90;;;;;;5012690;28;20532;-53
2021/10/05 08:49:53;;;;;;;16.43;15.60;;;15.60;99.90;;;;;;5022347;28;20540;-56
2021/10/05 08:52:20;;;;;;;15.83;15.30;;;15.60;99.90;;;;;;5032056;28;20485;-55
2021/10/05 08:54:47;;;;;;;15.53;15.00;;;15.60;99.90;;;;;;5032440;28;20934;-58
2021/10/05 08:57:14;;;;;;;16.47;15.77;;;15.60;99.90;;;;;;5032508;28;20453;-58
2021/10/05 08:59:41;;;;;;;16.70;15.90;;;15.70;99.90;;;;;;5032094;28;20456;-55
2021/10/05 09:02:13;;;;;;;15.80;15.10;;;15.70;99.90;;;;;;5017845;28;20466;-58
2021/10/05 09:04:41;;;;;;;16.17;15.50;;;15.70;99.90;;;;;;5012319;28;20569;-57
2021/10/05 09:07:19;;;;;;;15.47;14.97;;;15.60;99.90;;;;;;5012253;28;20449;-57
2021/10/05 09:09:57;;;;;;;15.47;14.87;;;15.50;99.90;;;;;;5020124;28;20452;-55
2021/10/05 09:12:25;;;;;;;16.87;16.13;;;15.50;99.90;;;;;;5031954;28;21021;-57
2021/10/05 09:14:52;;;;;;;17.40;16.60;;;15.50;99.90;;;;;;5032004;28;20440;-52
2021/10/05 09:17:20;;;;;;;16.00;15.50;;;15.50;99.90;;;;;;5032058;28;20447;-52
2021/10/05 09:19:49;;;;;;;15.50;14.80;;;15.70;99.90;;;;;;5023429;28;20477;-58
2021/10/05 09:22:17;;;;;;;15.37;14.67;;;15.90;99.90;;;;;;5011408;28;20885;-55
2021/10/05 09:24:47;;;;;;;15.50;14.90;;;16.10;99.90;;;;;;5012023;28;20998;-57
2021/10/05 09:27:14;;;;;;;15.93;15.33;;;16.20;99.90;;;;;;5012122;28;20453;-52
2021/10/05 09:29:41;;;;;;;15.97;15.37;;;16.30;99.90;;;;;;5011790;28;20450;-55
2021/10/05 09:32:10;;;;;;;15.70;15.00;;;16.40;99.90;;;;;;5023979;28;20827;-54
2021/10/05 09:34:41;;;;;;;15.77;15.23;;;16.40;99.90;;;;;;5031584;28;20452;-58
2021/10/05 09:37:12;;;;;;;16.10;15.50;;;16.50;99.90;;;;;;5031740;28;20441;-56
2021/10/05 09:39:42;;;;;;;17.03;16.30;;;16.50;99.90;;;;;;5031645;28;20457;-56
2021/10/05 09:42:11;;;;;;;17.10;16.40;;;16.60;99.90;;;;;;5031523;28;20471;-54
2021/10/05 09:44:38;;;;;;;15.30;14.70;;;16.80;99.90;;;;;;5014749;28;21010;-53
2021/10/05 09:47:05;;;;;;;16.33;15.67;;;16.90;99.90;;;;;;5011469;28;20454;-58
2021/10/05 09:49:42;;;;;;;16.07;15.47;;;17.00;99.90;;;;;;5011205;28;20832;-56
2021/10/05 09:54:37;;;;;;;15.60;15.03;;;17.30;99.90;;;;;;5001064;28;20470;-50
2021/10/05 09:57:05;;;;;;;16.20;15.60;;;17.20;99.90;;;;;;5011289;28;20843;-49
2021/10/05 09:59:31;;;;;;;16.33;15.73;;;17.30;99.90;;;;;;5011486;28;20538;-52
2021/10/05 10:01:59;;;;;;;17.30;16.70;;;17.40;99.90;;;;;;5012024;28;20811;-53
2021/10/05 10:04:26;;;;;;;18.00;17.30;;;17.60;99.90;;;;;;4992674;28;20491;-50
2021/10/05 10:06:54;;;;;;;16.70;16.10;;;17.70;99.90;;;;;;4991479;28;20484;-54
2021/10/05 10:09:21;;;;;;;17.50;16.90;;;17.80;99.90;;;;;;4972453;28;20444;-50
2021/10/05 10:11:49;;;;;;;17.43;16.83;;;17.90;99.90;;;;;;4972491;28;20447;-56
2021/10/05 10:14:20;;;;;;;20.90;19.83;;;18.10;99.90;;;;;;4972702;28;20459;-52
2021/10/05 10:16:49;;;;;;;17.77;17.07;;;18.10;99.90;;;;;;4985464;28;20545;-53
2021/10/05 10:19:25;;;;;;;17.47;16.87;;;18.10;99.90;;;;;;4991845;28;20810;-52
2021/10/05 10:21:52;;;;;;;16.97;16.47;;;17.90;99.90;;;;;;4992099;28;20443;-52
2021/10/05 10:24:19;;;;;;;17.37;16.77;;;18.10;99.90;;;;;;4985191;28;20487;-51
2021/10/05 10:26:55;;;;;;;17.93;17.27;;;18.40;99.90;;;;;;4972552;28;20487;-56
2021/10/05 10:29:27;;;;;;;17.60;16.90;;;18.60;99.90;;;;;;4972336;28;20459;-54
2021/10/05 10:31:54;;;;;;;18.30;17.50;;;18.60;99.90;;;;;;4972417;28;20463;-52
2021/10/05 10:34:22;;;;;;;18.23;17.63;;;18.80;99.90;;;;;;4981755;28;20491;-51
2021/10/05 10:36:50;;;;;;;18.10;17.50;;;19.10;99.90;;;;;;4995694;28;20459;-52
2021/10/05 10:39:19;;;;;;;18.30;17.70;;;19.10;99.90;;;;;;4995627;28;20442;-52
2021/10/05 10:41:58;;;;;;;18.60;18.00;;;19.30;99.90;;;;;;4995606;28;20785;-56
2021/10/05 10:44:29;;;;;;;18.33;17.73;;;19.70;99.90;;;;;;4995667;28;21011;-53
2021/10/05 10:47:07;;;;;;;19.50;18.80;;;19.80;99.90;;;;;;4984743;28;20452;-52
2021/10/05 10:49:33;;;;;;;19.40;18.67;;;20.10;99.90;;;;;;4975807;28;20482;-52
2021/10/05 10:52:00;;;;;;;19.37;18.77;;;20.30;99.90;;;;;;4976186;28;20454;-51
2021/10/05 10:54:27;;;;;;;19.60;18.90;;;20.80;99.90;;;;;;4975704;28;20981;-55
2021/10/05 10:57:00;;;;;;;20.67;19.70;;;21.10;99.00;;;;;;4976008;28;20456;-53
2021/10/05 10:59:29;;;;;;;20.50;19.80;;;21.40;98.10;;;;;;4989407;28;20574;-52
2021/10/05 11:02:01;;;;;;;20.40;19.70;;;21.80;94.60;;;;;;4995207;28;20454;-52
2021/10/05 11:04:28;;;;;;;20.57;19.87;;;22.30;93.40;;;;;;4995213;28;20581;-52
2021/10/05 11:06:57;;;;;;;21.90;21.20;;;22.60;92.50;;;;;;4995317;28;20457;-57
2021/10/05 11:09:29;;;;;;;21.40;20.60;;;23.10;90.40;;;;;;4994602;28;20485;-54
2021/10/05 11:11:58;;;;;;;21.03;20.33;;;23.60;86.70;;;;;;4956260;29;20449;-56
2021/10/05 11:14:28;;;;;;;21.40;20.70;;;23.90;80.00;;;;;;4956402;28;20472;-55
2021/10/05 11:16:58;;;;;;;22.17;21.30;;;24.20;77.40;;;;;;4956644;29;20476;-55
2021/10/05 11:19:29;;;;;;;22.30;21.50;;;24.90;72.60;;;;;;4982697;28;20454;-56
2021/10/05 11:21:56;;;;;;;22.50;21.40;;;25.90;69.10;;;;;;4995157;28;20447;-55
2021/10/05 11:24:33;;;;;;;22.57;21.77;;;27.50;63.40;;;;;;4994731;28;20939;-53
2021/10/05 11:27:00;;;;;;;21.97;21.27;;;28.50;56.80;;;;;;4994925;28;20458;-55
2021/10/05 11:29:29;;;;;;;22.67;21.77;;;29.20;52.60;;;;;;4981322;28;20945;-56
2021/10/05 11:32:00;;;;;;;23.10;22.20;;;29.60;50.70;;;;;;4975333;28;20443;-55
2021/10/05 11:34:28;;;;;;;22.73;21.60;;;30.90;48.30;;;;;;4975329;28;20492;-52
2021/10/05 11:37:00;;;;;;;22.90;22.10;;;31.40;46.10;;;;;;4975373;28;20815;-55
2021/10/05 11:39:28;;;;;;;22.13;21.23;;;31.70;43.40;;;;;;4975024;28;20458;-55
2021/10/05 11:41:57;;;;;;;22.03;21.23;;;31.60;41.60;;;;;;4990970;28;20446;-56
2021/10/05 11:44:27;;;;;;;22.13;21.33;;;30.80;41.40;;;;;;4993632;28;20986;-54
2021/10/05 11:47:01;;;;;;;23.07;22.17;;;29.70;43.30;;;;;;4994558;28;20516;-56
2021/10/05 11:49:31;;;;;;;23.17;22.23;;;29.90;43.90;;;;;;4994427;28;20454;-52
2021/10/05 11:51:57;;;;;;;21.03;20.20;;;29.90;42.80;;;;;;4994342;28;20447;-54
2021/10/05 11:54:26;;;;;;;22.03;21.07;;;27.70;44.10;;;;;;4974925;28;20900;-59
2021/10/05 11:56:55;;;;;;;22.60;21.60;;;26.40;47.20;;;;;;4974868;28;20982;-56
2021/10/05 11:59:30;;;;;;;21.03;20.23;;;25.70;49.00;;;;;;4974897;28;20452;-53
2021/10/05 12:02:04;;;;;;;21.80;20.90;;;24.80;49.80;;;;;;4974888;28;20828;-55
2021/10/05 12:04:31;;;;;;;21.97;21.07;;;23.90;52.00;;;;;;4980092;28;20478;-53
2021/10/05 12:07:01;;;;;;;23.10;22.10;;;23.10;53.50;;;;;;4994089;28;20451;-53
2021/10/05 12:09:29;;;;;;;21.37;20.47;;;22.40;55.30;;;;;;4994020;28;20871;-55
2021/10/05 12:12:02;;;;;;;22.30;21.40;;;21.70;57.10;;;;;;4994346;28;20447;-54
2021/10/05 12:14:35;;;;;;;21.53;20.47;;;21.30;59.10;;;;;;4993913;28;20463;-54
2021/10/05 12:17:06;;;;;;;21.70;20.80;;;21.10;61.70;;;;;;4991979;28;20912;-52
2021/10/05 12:19:34;;;;;;;21.73;20.63;;;21.20;64.40;;;;;;4993437;28;20462;-57
2021/10/05 12:22:02;;;;;;;22.17;20.97;;;21.70;64.00;;;;;;4993822;28;20447;-55
2021/10/05 12:24:44;;;;;;;21.47;20.67;;;21.90;63.90;;;;;;4993758;28;20906;-55
2021/10/05 12:27:17;;;;;;;21.57;20.77;;;21.70;64.20;;;;;;4993952;28;20455;-55
2021/10/05 12:29:56;;;;;;;22.37;21.23;;;21.60;65.70;;;;;;4975200;28;20477;-51
2021/10/05 12:32:36;;;;;;;20.70;19.60;;;21.70;66.10;;;;;;4974311;28;20503;-51
2021/10/05 12:35:03;;;;;;;21.87;21.07;;;21.60;67.70;;;;;;4974541;28;20443;-52
2021/10/05 12:37:31;;;;;;;21.30;20.60;;;21.70;68.60;;;;;;4974061;28;20474;-51
2021/10/05 12:40:01;;;;;;;21.67;20.73;;;22.00;68.70;;;;;;4976422;28;20523;-51
2021/10/05 12:42:42;;;;;;;21.30;20.40;;;22.10;68.50;;;;;;4993281;28;20463;-53